Tiempo atmosférico en la estación meteorológica de Castellón de la Plana, Almazora, Castelló/Castellón (35 m.)



Fecha
DESCASC
Temp. máxima en grados centígrados (hora)
DESCASC
Temp. mínima en grados centígrados (hora)
DESCASC
Temp. media en grados centígrados
DESCASC
Racha de viento máxima en m/sg (hora)
DESCASC
Velocidad máxima media en intervalos de 10 minutos(hora)
DESCASC
Precipitaciones diarias en mm
DESCASC
Precipitaciones de 00:00 a 06:00 en mm
DESCASC
Precipitaciones de 06:00 a 12:00 en mm
DESCASC
Precipitaciones de 12:00 a 18:00 en mm
DESCASC
Precipitaciones de 18:00 a 24:00 en mm
DESCASC

Gráficas

Temp. máximas Temp. mínimas Temp. medias Precipitaciones Rachas de viento máximas Velocidades máximas media en intervalos de 10 minutos

Datos horarios

Fecha y hora oficial Temperatura (ºC) Velocidad del viento (km/h) Dirección del viento Racha (km/h) Dirección de racha Precipitación (mm) Presión (hPa) Tendencia (hPa) Humedad (%)
2019-04-23 23:00:00 13.9 10 Sudoeste 24 Sur 0 995.3 2.4 74
2019-04-23 22:00:00 14.3 11 Sur 23 Sudoeste 0 994.5 2 85
2019-04-23 21:00:00 14.7 11 Sur 21 Sur 0 993.6 1 81
2019-04-23 20:00:00 15.9 12 Sur 25 Sur 0 992.9 -0.2 74
2019-04-23 19:00:00 16.6 9 Sur 15 Sur 0 992.5 0.1 72
2019-04-23 18:00:00 16.9 7 Sur 19 Sudoeste 0 992.6 1 67
2019-04-23 17:00:00 16.4 10 Oeste 44 Sudoeste 0.6 993.1 1.6 71
2019-04-23 16:00:00 20.9 23 Sudoeste 40 Sudoeste 0 992.4 0.1 43
2019-04-23 15:00:00 23 17 Sudoeste 32 Sudoeste 0 991.6 -0.7 44
2019-04-23 14:00:00 22.8 12 Sur 24 Sur 0 991.5 -0.6 41
2019-04-23 13:00:00 21.7 8 Sudoeste 16 Sur 0 992.3 0.3 49
2019-04-23 12:00:00 19.7 6 Sur 12 Sudeste 0 992.3 0.5 62
2019-04-23 11:00:00 16.3 4 Oeste 11 Sudoeste 0 992.1 0.3 71
2019-04-23 10:00:00 14.7 8 Oeste 15 Oeste 0 992 0.4 76
2019-04-23 09:00:00 12.5 8 Oeste 16 Sudoeste 0 991.8 0 84
2019-04-23 08:00:00 11.4 5 Oeste 12 Noroeste 0 991.8 -0.3 91
2019-04-23 07:00:00 10.9 4 Noroeste 11 Noroeste 0 991.6 -0.9 90
2019-04-23 06:00:00 11.6 4 Noroeste 13 Noroeste 0 991.8 -1.4 88
2019-04-23 05:00:00 11.5 6 Noroeste 14 Noroeste 0 992.1 -1.7 90
2019-04-23 04:00:00 12.3 7 Oeste 16 Noroeste 0 992.5 -1.5 89
2019-04-23 03:00:00 12.7 7 Oeste 13 Oeste 0 993.2 -1.5 89
2019-04-23 02:00:00 13.3 6 Oeste 9 Oeste 0 993.8 -1.3 88
2019-04-23 01:00:00 13.6 4 Noroeste 11 Oeste 0 994 -1 87
2019-04-23 00:00:00 14.2 9 Sudoeste 13 Sudoeste 0 994.7 0.3 86
2019-04-22 23:00:00 14.3 3 Oeste 8 Sudoeste 0 995.1 1.2 85
2019-04-22 22:00:00 14.6 0 Calma 9 Este 0 995 1.3 82
2019-04-22 21:00:00 15.1 3 Este 14 Sudeste 0 994.4 0.5 78
2019-04-22 20:00:00 16.5 2 Nordeste 9 Noroeste 0 993.9 -0.1 68
2019-04-22 19:00:00 16.7 3 Norte 11 Oeste 0 993.7 -0.6 65
2019-04-22 18:00:00 16.8 6 Oeste 8 Oeste 0 993.9 -0.8 66
2019-04-22 17:00:00 17.1 6 Oeste 9 Oeste 0 994 -1 61
2019-04-22 16:00:00 17.3 5 Noroeste 19 Norte 0 994.3 -1.2 58
2019-04-22 15:00:00 16.7 9 Norte 19 Noroeste 0 994.7 -1.1 61
2019-04-22 14:00:00 15.9 7 Norte 17 Noroeste 0 995 -1.2 64
2019-04-22 13:00:00 15.7 10 Norte 21 Norte 0 995.5 -0.8 68
2019-04-22 12:00:00 13.4 8 Noroeste 20 Oeste 0.2 995.8 -0.3 82
2019-04-22 11:00:00 12.4 12 Noroeste 19 Oeste 0.2 996.2 -0.2 90
2019-04-22 10:00:00 12.5 5 Norte 15 Norte 1.8 996.3 0.3 84
2019-04-22 09:00:00 13 6 Norte 31 Norte 1.2 996.1 -0.2 82
2019-04-22 08:00:00 15.6 21 Nordeste 35 Nordeste 0 996.4 -0.2 56
2019-04-22 07:00:00 15.6 9 Nordeste 22 Nordeste 0 996 -1.2 55
2019-04-22 06:00:00 15.8 7 Norte 28 Norte 0 996.3 -1.9 56
2019-04-22 05:00:00 16 13 Norte 32 Norte 0 996.6 -2.9 54
2019-04-22 04:00:00 15.9 14 Norte 34 Nordeste 0 997.2 -3.2 56
2019-04-22 03:00:00 16 19 Nordeste 40 Norte 0 998.2 -2.9 57
2019-04-22 02:00:00 15.7 10 Nordeste 22 Norte 0 999.5 -2.3 59
2019-04-22 01:00:00 15.3 10 Norte 22 Nordeste 0 1000.4 -2.1 65
2019-04-22 00:00:00 15.2 14 Norte 29 Norte 0 1001.1 -0.3 68
2019-04-21 23:00:00 14 15 Norte 32 Nordeste 0 1001.8 -0.2 76
2019-04-21 22:00:00 13.4 21 Nordeste 42 Norte 0 1002.5 0.3 87
2019-04-21 21:00:00 16 24 Nordeste 53 Nordeste 0 1001.4 -1 59
2019-04-21 20:00:00 15.1 23 Norte 43 Norte 0 1002 -0.9 66
2019-04-21 19:00:00 16 17 Nordeste 42 Nordeste 0 1002.2 -1 59
2019-04-21 18:00:00 16.2 19 Nordeste 39 Nordeste 0 1002.4 -1.4 56
2019-04-21 17:00:00 16.3 16 Nordeste 45 Nordeste 0 1002.9 -1.4 54
2019-04-21 16:00:00 16.2 25 Norte 50 Norte 0 1003.2 -1.7 55
2019-04-21 15:00:00 15.9 21 Nordeste 40 Nordeste 0 1003.8 -1.5 67
2019-04-21 14:00:00 16.7 17 Nordeste 40 Nordeste 0 1004.3 -1.5 57
2019-04-21 13:00:00 16.3 14 Nordeste 38 Norte 0 1004.9 -0.9 54
2019-04-21 12:00:00 15.7 18 Nordeste 33 Nordeste 0 1005.3 -0.5 58
2019-04-21 11:00:00 13.9 13 Norte 42 Nordeste 0 1005.8 -0.4 73
2019-04-21 10:00:00 15.3 20 Nordeste 41 Norte 0 1005.8 -0.7 60
2019-04-21 09:00:00 15.1 21 Norte 46 Norte 0 1005.8 -0.8 57
2019-04-21 08:00:00 15 23 Norte 38 Norte 0 1006.2 -0.8 56
2019-04-21 07:00:00 14.9 19 Norte 40 Norte 0 1006.5 -1.3 57
2019-04-21 06:00:00 15 23 Norte 40 Nordeste 0 1006.6 -2.3 56
2019-04-21 05:00:00 15 24 Norte 45 Nordeste 0 1007 -3.1 57
2019-04-21 04:00:00 14.7 21 Norte 37 Norte 0 1007.8 -2.9 59
2019-04-21 03:00:00 14.7 22 Norte 45 Nordeste 0 1008.9 -2.4 59
2019-04-21 02:00:00 14.7 26 Norte 42 Norte 0 1010.1 -1.6 58
2019-04-21 01:00:00 14.7 19 Norte 41 Norte 0 1010.7 -0.9 58
2019-04-21 00:00:00 14.9 19 Norte 36 Nordeste 0 1011.3 0.1 58
2019-04-20 23:00:00 15 24 Nordeste 46 Norte 0 1011.7 0.7 55
2019-04-20 22:00:00 14.8 26 Norte 55 Nordeste 0 1011.6 0 59
2019-04-20 21:00:00 14.8 24 Nordeste 44 Norte 0 1011.2 -0.1 60
2019-04-20 20:00:00 15.2 26 Nordeste 49 Norte 0 1011 -0.8 57
2019-04-20 19:00:00 15.5 21 Norte 44 Norte 0 1011.6 -0.6 60
2019-04-20 18:00:00 15.7 22 Norte 45 Norte 0 1011.3 -1.4 61
2019-04-20 17:00:00 15.2 21 Norte 45 Norte 0 1011.8 -0.6 64
2019-04-20 16:00:00 14.1 26 Nordeste 50 Nordeste 0.4 1012.2 0.8 73
2019-04-20 15:00:00 14.5 16 Norte 42 Nordeste 1 1012.7 0.3 71
2019-04-20 14:00:00 16.2 18 Nordeste 49 Nordeste 0.6 1012.4 0.1 61
2019-04-20 13:00:00 18.5 26 Nordeste 60 Nordeste 0 1011.4 -0.5 42
2019-04-20 12:00:00 18.6 22 Nordeste 53 Nordeste 0 1012.4 1.1 41
2019-04-20 11:00:00 17.8 25 Nordeste 53 Norte 0 1012.3 1.3 50
2019-04-20 10:00:00 17.4 20 Nordeste 44 Nordeste 0 1011.9 1.6 43
2019-04-20 09:00:00 17 20 Nordeste 47 Nordeste 0 1011.3 -0.3 47
2019-04-20 08:00:00 16.8 25 Nordeste 71 Norte 0 1011 -0.8 49
2019-04-20 07:00:00 16.6 35 Nordeste 57 Nordeste 0 1010.3 -1.2 51
2019-04-20 06:00:00 16.2 26 Nordeste 47 Nordeste 0 1011.6 -0.9 54
2019-04-20 05:00:00 16.1 24 Norte 50 Nordeste 0 1011.8 -1.7 57
2019-04-20 04:00:00 16.1 29 Norte 46 Nordeste 0 1011.5 -3 58
2019-04-20 03:00:00 16.3 26 Nordeste 45 Nordeste 0 1012.5 -1.5 59
2019-04-20 02:00:00 16.6 23 Nordeste 46 Norte 0 1013.5 -0.9 57
2019-04-20 01:00:00 16.8 20 Nordeste 55 Norte 0 1014.5 -0.2 55
2019-04-20 00:00:00 16.5 24 Nordeste 45 Nordeste 0 1014 0.1 60
2019-04-19 23:00:00 16.6 21 Nordeste 46 Nordeste 0 1014.4 1 65
2019-04-19 22:00:00 16.2 21 Nordeste 51 Nordeste 0 1014.7 1.2 70
2019-04-19 21:00:00 16 29 Nordeste 55 Nordeste 0 1013.9 1.3 72
2019-04-19 20:00:00 15.7 23 Nordeste 50 Nordeste 0 1013.4 0.7 75
2019-04-19 19:00:00 15.7 21 Nordeste 58 Nordeste 0 1013.5 1 75
2019-04-19 18:00:00 15.6 23 Nordeste 53 Nordeste 0 1012.6 0.3 75
2019-04-19 17:00:00 15.5 29 Nordeste 53 Nordeste 0 1012.7 0.1 77
2019-04-19 16:00:00 15.2 22 Nordeste 50 Nordeste 0 1012.5 -0.1 80
2019-04-19 15:00:00 14.9 24 Nordeste 51 Nordeste 0 1012.3 0.1 83
2019-04-19 14:00:00 14.1 21 Nordeste 48 Nordeste 0 1012.6 0.9 93
2019-04-19 13:00:00 14.1 18 Nordeste 42 Nordeste 0.4 1012.6 1.6 96
2019-04-19 12:00:00 14.2 18 Nordeste 43 Nordeste 1 1012.2 1.6 97
2019-04-19 11:00:00 14.3 16 Nordeste 35 Nordeste 0.4 1011.7 1.7 98
2019-04-19 10:00:00 14.7 12 Nordeste 28 Nordeste 1 1011 1.4 96
2019-04-19 09:00:00 14.6 10 Nordeste 27 Nordeste 0.6 1010.6 1.4 99
2019-04-19 08:00:00 14.6 9 Este 23 Nordeste 0 1010 0.2 99
2019-04-19 07:00:00 14.5 8 Nordeste 23 Nordeste 0 1009.6 0 99
2019-04-19 06:00:00 14.5 8 Nordeste 25 Este 0.8 1009.2 -0.1 99
2019-04-19 05:00:00 14.4 7 Nordeste 27 Este 0 1009.8 -0.3 98
2019-04-19 04:00:00 14.6 8 Este 27 Nordeste 0.2 1009.6 0.1 99
2019-04-19 03:00:00 14.4 8 Nordeste 23 Nordeste 3.4 1009.3 0.1 98
2019-04-19 02:00:00 14.7 11 Este 26 Este 10.2 1010.1 1.2 99
2019-04-19 01:00:00 14.6 10 Este 23 Este 3.4 1009.5 1.2 100
2019-04-19 00:00:00 14.3 11 Nordeste 27 Este 1.4 1009.2 1 99
2019-04-18 23:00:00 14.3 10 Nordeste 30 Nordeste 4.4 1008.9 0.8 99
2019-04-18 22:00:00 14.4 9 Nordeste 35 Nordeste 1.8 1008.3 1.1 98
2019-04-18 21:00:00 14.3 12 Nordeste 30 Nordeste 1.8 1008.2 1.1 97
2019-04-18 20:00:00 14.3 13 Nordeste 38 Nordeste 0.8 1008.1 0.5 96
2019-04-18 19:00:00 14.8 20 Nordeste 42 Norte 0 1007.2 -1.1 90
2019-04-18 18:00:00 15.5 19 Nordeste 41 Nordeste 0 1007.1 -1.5 81
2019-04-18 17:00:00 15.5 19 Nordeste 43 Nordeste 0 1007.6 -0.5 80
2019-04-18 16:00:00 15.4 21 Nordeste 46 Nordeste 0 1008.3 0.3 78
2019-04-18 15:00:00 15.4 17 Nordeste 49 Norte 0 1008.6 0.2 77
2019-04-18 14:00:00 15.5 18 Nordeste 43 Nordeste 0 1008.1 -1.6 77
2019-04-18 13:00:00 15.7 22 Nordeste 48 Nordeste 0 1008 -0.8 74
2019-04-18 12:00:00 15.7 24 Nordeste 45 Nordeste 0 1008.4 -0.5 74
2019-04-18 11:00:00 15.8 18 Nordeste 44 Nordeste 0 1009.7 1.1 71
2019-04-18 10:00:00 15.3 17 Nordeste 42 Nordeste 0 1008.8 -0.8 73
2019-04-18 09:00:00 15 13 Nordeste 28 Norte 0 1008.9 -0.6 78
2019-04-18 08:00:00 14.8 12 Nordeste 32 Nordeste 0 1008.6 -1 78
2019-04-18 07:00:00 14.5 4 Noroeste 16 Norte 0 1009.6 0 79
2019-04-18 06:00:00 13.8 4 Norte 10 Norte 0 1009.5 -1.6 78
2019-04-18 05:00:00 13.7 3 Noroeste 8 Oeste 0 1009.6 -2.3 78
2019-04-18 04:00:00 13.6 3 Noroeste 9 Norte 0 1009.6 -2 80
2019-04-18 03:00:00 13.3 4 Norte 12 Noroeste 0 1011.1 -0.5 83
2019-04-18 02:00:00 13.8 5 Noroeste 11 Oeste 0 1011.9 0.3 82
2019-04-18 01:00:00 14 6 Noroeste 9 Noroeste 0 1011.6 0.1 82
2019-04-18 00:00:00 14.7 7 Norte 14 Nordeste 0 1011.6 0.6 81
2019-04-17 23:00:00 14.6 5 Nordeste 11 Norte 0 1011.6 1 84
2019-04-17 22:00:00 14.5 4 Nordeste 9 Nordeste 0 1011.5 0.9 84
2019-04-17 21:00:00 15.1 4 Nordeste 11 Este 0 1011 0.2 82
2019-04-17 20:00:00 16 5 Este 17 Sudeste 0 1010.6 -0.3 77
2019-04-17 19:00:00 16.6 5 Este 18 Sudeste 0 1010.6 -1 74
2019-04-17 18:00:00 17.3 11 Este 19 Este 0 1010.8 -1.2 70
2019-04-17 17:00:00 17.8 11 Este 22 Sudeste 0 1010.9 -1.6 68
2019-04-17 16:00:00 18.8 12 Sudeste 23 Este 0 1011.6 -1.4 65
2019-04-17 15:00:00 18.7 11 Este 25 Sudeste 0 1012 -1.4 65
2019-04-17 14:00:00 19 13 Sudeste 23 Sudeste 0 1012.5 -1.4 63
2019-04-17 13:00:00 17.9 6 Este 19 Este 0 1013 -0.5 64
2019-04-17 12:00:00 16.3 4 Nordeste 13 Norte 0 1013.4 -0.2 70
2019-04-17 11:00:00 15.7 4 Este 9 Nordeste 0 1013.9 0.4 73
2019-04-17 10:00:00 14.3 3 Noroeste 13 Oeste 0 1013.5 0.3 70
2019-04-17 09:00:00 12.3 8 Oeste 14 Noroeste 0 1013.6 0.5 75
2019-04-17 08:00:00 11.5 5 Noroeste 13 Noroeste 0 1013.5 0 79
2019-04-17 07:00:00 11.1 9 Oeste 14 Noroeste 0 1013.2 -0.9 81
2019-04-17 06:00:00 11.3 8 Oeste 12 Oeste 0 1013.1 -1.5 83
2019-04-17 05:00:00 11.5 4 Noroeste 8 Oeste 0 1013.5 -1.6 84
2019-04-17 04:00:00 11.7 4 Noroeste 9 Noroeste 0 1014.1 -1.4 83
2019-04-17 03:00:00 12 5 Noroeste 9 Noroeste 0 1014.6 -0.9 83
2019-04-17 02:00:00 13 4 Noroeste 8 Noroeste 0 1015.1 -0.1 80
2019-04-17 01:00:00 13.7 5 Noroeste 8 Noroeste 0 1015.5 0.7 80
2019-04-17 00:00:00 14.2 3 Noroeste 9 Nordeste 0 1015.5 1.2 78
2019-04-16 23:00:00 14.4 4 Nordeste 11 Este 0 1015.2 1.2 81
2019-04-16 22:00:00 14.6 4 Nordeste 15 Nordeste 0 1014.8 1 81
2019-04-16 21:00:00 15.3 8 Este 20 Este 0 1014.3 0.5 78
2019-04-16 20:00:00 16.4 8 Este 21 Este 0 1014 0.3 70
2019-04-16 19:00:00 17.5 6 Este 21 Sudeste 0 1013.8 -0.3 60
2019-04-16 18:00:00 18.4 12 Sudeste 22 Sudeste 0 1013.8 -0.6 57
2019-04-16 17:00:00 18.9 8 Este 22 Sudeste 0 1013.7 -0.6 52
2019-04-16 16:00:00 19.1 11 Este 26 Este 0 1014.1 -0.2 55
2019-04-16 15:00:00 19.5 13 Sudeste 28 Este 0 1014.4 0.2 53
2019-04-16 14:00:00 18.7 8 Este 23 Este 0 1014.3 0.5 56
2019-04-16 13:00:00 18.4 13 Este 23 Sudeste 0 1014.3 0.8 60
2019-04-16 12:00:00 18.2 13 Este 22 Sudeste 0 1014.2 0.8 61
2019-04-16 11:00:00 18 10 Este 21 Sudeste 0 1013.8 1.7 62
2019-04-16 10:00:00 16.5 5 Nordeste 11 Nordeste 0 1013.5 1.8 66
2019-04-16 09:00:00 13.3 6 Noroeste 13 Oeste 0 1013.4 2.5 74
2019-04-16 08:00:00 11.2 3 Noroeste 16 Oeste 0 1012.1 1.9 81
2019-04-16 07:00:00 11.7 8 Oeste 13 Oeste 0 1011.7 1.4 79
2019-04-16 06:00:00 11.9 4 Noroeste 7 Oeste 0 1010.9 0.5 79
2019-04-16 05:00:00 12 3 Oeste 6 Norte 0 1010.2 -0.8 81
2019-04-16 04:00:00 12.2 4 Noroeste 12 Oeste 0 1010.3 0.1 80
2019-04-16 03:00:00 12.5 4 Noroeste 9 Noroeste 0 1010.4 -0.5 79
2019-04-16 02:00:00 13.1 6 Noroeste 13 Oeste 0 1011 0.4 77
2019-04-16 01:00:00 13.9 4 Noroeste 15 Noroeste 0 1010.2 0.1 74
2019-04-16 00:00:00 14.5 8 Noroeste 15 Oeste 0 1010.9 1.4 69
2019-04-15 23:00:00 15 5 Nordeste 13 Norte 0 1010.6 1.2 67
2019-04-15 22:00:00 14.8 6 Nordeste 12 Nordeste 0 1010.1 0.7 69
2019-04-15 21:00:00 15 5 Nordeste 13 Nordeste 0 1009.5 -0.1 73
2019-04-15 20:00:00 16.4 6 Nordeste 18 Nordeste 0 1009.4 -0.4 64
2019-04-15 19:00:00 17.3 8 Este 22 Este 0 1009.4 -0.9 61
2019-04-15 18:00:00 17.5 8 Nordeste 22 Este 0 1009.6 -1.2 53
2019-04-15 17:00:00 17.8 8 Este 23 Este 0 1009.8 -1.4 58
2019-04-15 16:00:00 19.1 8 Este 23 Este 0 1010.3 -1.3 50
2019-04-15 15:00:00 19.4 8 Este 27 Este 0 1010.8 -1.1 46
2019-04-15 14:00:00 19.6 12 Este 29 Este 0 1011.2 -0.8 42
2019-04-15 13:00:00 19.5 12 Este 28 Este 0 1011.6 -0.3 44
2019-04-15 12:00:00 18.8 9 Nordeste 24 Este 0 1011.9 -0.1 48
2019-04-15 11:00:00 18 9 Nordeste 22 Nordeste 0 1012 0.5 53
2019-04-15 10:00:00 17.3 8 Nordeste 18 Nordeste 0 1011.9 0.6 57
2019-04-15 09:00:00 15.8 5 Norte 10 Norte 0 1012 1.3 70
2019-04-15 08:00:00 13.3 4 Noroeste 8 Noroeste 0 1011.5 0.7 81
2019-04-15 07:00:00 14.2 5 Norte 18 Norte 0 1011.3 1.3 76
2019-04-15 06:00:00 13.7 6 Norte 14 Norte 0 1010.7 1.2 83
2019-04-15 05:00:00 14 10 Nordeste 20 Nordeste 0 1010.8 1.1 83
2019-04-15 04:00:00 13.9 6 Nordeste 17 Este 0 1010 0.4 86
2019-04-15 03:00:00 14.6 6 Este 14 Este 0 1009.5 0.3 85
2019-04-15 02:00:00 15 4 Este 13 Este 0 1009.7 0.6 86
2019-04-15 01:00:00 15.5 5 Este 13 Este 0 1009.6 0.8 84
2019-04-15 00:00:00 15.9 3 Nordeste 12 Este 0 1009.2 1.2 73
2019-04-14 23:00:00 16.7 6 Este 11 Este 0 1009.1 1.5 67
2019-04-14 22:00:00 17.4 3 Nordeste 12 Este 0 1008.8 1.5 64
2019-04-14 21:00:00 18.3 3 Este 15 Este 0 1008 1.2 63
2019-04-14 20:00:00 19.7 6 Este 19 Este 0 1007.6 1 56
2019-04-14 19:00:00 22.5 6 Este 17 Este 0 1007.3 0.3 46
2019-04-14 18:00:00 24.9 9 Este 22 Sudeste 0 1006.8 -0.7 35
2019-04-14 17:00:00 27 9 Sudeste 22 Sur 0 1006.6 -1.3 28
2019-04-14 16:00:00 28.5 13 Sudeste 26 Sudeste 0 1007 -1.3 24
2019-04-14 15:00:00 28 15 Sudeste 26 Sur 0 1007.5 -1.3 21
2019-04-14 14:00:00 27.9 14 Sur 25 Sur 0 1007.9 -1.1 24
2019-04-14 13:00:00 27.7 12 Sur 19 Sudeste 0 1008.3 -0.6 21
2019-04-14 12:00:00 26.3 4 Noroeste 13 Sudoeste 0 1008.8 0.1 21
2019-04-14 11:00:00 23.6 6 Sudoeste 17 Oeste 0 1009 0 25
2019-04-14 10:00:00 19.8 10 Oeste 21 Oeste 0 1008.9 0.3 29
2019-04-14 09:00:00 15.3 12 Oeste 20 Noroeste 0 1008.7 0.1 36
2019-04-14 08:00:00 13.3 11 Noroeste 20 Noroeste 0 1009 -0.1 37
2019-04-14 07:00:00 13 10 Noroeste 22 Noroeste 0 1008.6 -0.7 39
2019-04-14 06:00:00 12.5 11 Noroeste 21 Oeste 0 1008.6 -1.3 45
2019-04-14 05:00:00 12.3 13 Oeste 24 Oeste 0 1009.1 -1.4 46
2019-04-14 04:00:00 13.4 15 Oeste 25 Noroeste 0 1009.3 -1.9 46
2019-04-14 03:00:00 12.7 8 Noroeste 19 Noroeste 0 1009.9 -1.6 54
2019-04-14 02:00:00 12.4 10 Oeste 15 Noroeste 0 1010.5 -1.3 58
2019-04-14 01:00:00 12.4 11 Oeste 17 Noroeste 0 1011.2 -0.5 65
2019-04-14 00:00:00 12.7 7 Oeste 11 Oeste 0 1011.5 0.4 74
2019-04-13 23:00:00 13.7 3 Sudoeste 5 Oeste 0 1011.8 1 87
2019-04-13 22:00:00 14.5 2 Sudoeste 8 Sudoeste 0 1011.7 1.2 83
2019-04-13 21:00:00 16 6 Sur 13 Sur 0 1011.1 0.6 74
2019-04-13 20:00:00 17.7 4 Sur 13 Sudeste 0 1010.8 0.1 53
2019-04-13 19:00:00 18.6 6 Sur 15 Sudeste 0 1010.5 -0.7 50
2019-04-13 18:00:00 19.1 7 Sudeste 19 Sudeste 0 1010.5 -1 49
2019-04-13 17:00:00 20.1 10 Sudeste 19 Sur 0 1010.7 -1.3 39
2019-04-13 16:00:00 20.8 11 Sudeste 20 Sudeste 0 1011.2 -1.1 46
2019-04-13 15:00:00 20.7 10 Sudeste 22 Este 0 1011.5 -1.1 42
2019-04-13 14:00:00 21.1 10 Sudeste 25 Este 0 1012 -0.5 38
2019-04-13 13:00:00 20.7 10 Sudeste 20 Sudeste 0 1012.3 -0.2 36
2019-04-13 12:00:00 20 7 Sudeste 13 Este 0 1012.6 0.3 42
2019-04-13 11:00:00 18.3 4 Sudeste 11 Sudeste 0 1012.5 0.7 38
2019-04-13 10:00:00 15.5 4 Oeste 13 Noroeste 0 1012.5 1.3 44
2019-04-13 09:00:00 12.3 5 Noroeste 17 Oeste 0 1012.3 1.7 48
2019-04-13 08:00:00 9.8 10 Noroeste 18 Noroeste 0 1011.8 1.2 55
2019-04-13 07:00:00 10 9 Oeste 17 Oeste 0 1011.2 0.5 56
2019-04-13 06:00:00 10.5 8 Noroeste 19 Oeste 0 1010.6 -0.5 56
2019-04-13 05:00:00 11.2 13 Oeste 21 Noroeste 0 1010.6 -0.8 54
2019-04-13 04:00:00 11.4 10 Oeste 17 Noroeste 0 1010.7 -0.6 56
2019-04-13 03:00:00 12 10 Oeste 17 Oeste 0 1011.1 -0.1 59
2019-04-13 02:00:00 12 8 Noroeste 18 Oeste 0 1011.4 0.4 60
2019-04-13 01:00:00 11.9 6 Oeste 13 Noroeste 0 1011.3 0.8 65
2019-04-13 00:00:00 12.6 7 Noroeste 12 Noroeste 0 1011.2 1.3 62
2019-04-12 23:00:00 13.8 2 Sur 8 Sudoeste 0 1011 1.4 60
2019-04-12 22:00:00 14.5 6 Sur 14 Sur 0 1010.5 1.1 60
2019-04-12 21:00:00 15.7 9 Sur 19 Sudoeste 0 1009.9 0.5 51
2019-04-12 20:00:00 17.5 10 Sur 19 Sur 0 1009.6 0.2 49
2019-04-12 19:00:00 18.7 10 Sur 21 Sur 0 1009.4 -0.3 41
2019-04-12 18:00:00 19.4 11 Sur 21 Sur 0 1009.4 -0.6 37
2019-04-12 17:00:00 20.1 12 Sur 21 Sudeste 0 1009.4 -0.6 37
2019-04-12 16:00:00 20.9 12 Sudeste 23 Sudeste 0 1009.7 -0.5 36
2019-04-12 15:00:00 21.5 13 Sur 23 Sur 0 1010 -0.4 32
2019-04-12 14:00:00 21.2 10 Sur 23 Sudeste 0 1010 -0.5 33
2019-04-12 13:00:00 20.6 11 Sudeste 27 Sudeste 0 1010.2 -0.2 35
2019-04-12 12:00:00 19.5 5 Oeste 17 Noroeste 0 1010.4 0 32
2019-04-12 11:00:00 17.3 6 Noroeste 22 Oeste 0 1010.5 0.4 36
2019-04-12 10:00:00 15.3 11 Oeste 23 Oeste 0 1010.4 0.7 42
2019-04-12 09:00:00 12.9 13 Oeste 23 Oeste 0 1010.4 0.9 47
2019-04-12 08:00:00 11.3 14 Oeste 23 Oeste 0 1010.1 0.6 51
2019-04-12 07:00:00 11.8 14 Oeste 25 Oeste 0 1009.7 0.1 48
2019-04-12 06:00:00 11.8 12 Oeste 20 Noroeste 0 1009.5 -0.2 48
2019-04-12 05:00:00 12.4 14 Oeste 23 Oeste 0 1009.5 -0.6 47
2019-04-12 04:00:00 13.1 9 Noroeste 23 Oeste 0 1009.6 -0.5 44
2019-04-12 03:00:00 13.6 9 Oeste 21 Noroeste 0 1009.7 -0.4 44
2019-04-12 02:00:00 14.6 11 Noroeste 24 Norte 0 1010.1 -0.1 40
2019-04-12 01:00:00 15 8 Noroeste 22 Oeste 0 1010.1 0.3 40
2019-04-12 00:00:00 14.8 7 Noroeste 14 Noroeste 0 1010.1 0.9 42
2019-04-11 23:00:00 14.8 5 Noroeste 13 Oeste 0 1010.2 1.9 47
2019-04-11 22:00:00 14.1 3 Sudoeste 8 Sudoeste 0 1009.8 1.7 59
2019-04-11 21:00:00 15.3 6 Sudoeste 17 Sudoeste 0 1009.2 1.4 55
2019-04-11 20:00:00 16.8 12 Sudoeste 21 Sudoeste 0 1008.3 0.5 48
2019-04-11 19:00:00 19.3 9 Sur 19 Sur 0 1008.1 0.1 37
2019-04-11 18:00:00 20.2 11 Sur 20 Sudeste 0 1007.8 -0.5 34
2019-04-11 17:00:00 20.9 14 Sur 23 Sur 0 1007.8 -0.5 31
2019-04-11 16:00:00 21.3 10 Sudeste 23 Sudeste 0 1008 -0.6 32
2019-04-11 15:00:00 21.8 14 Sudeste 24 Sudeste 0 1008.3 -0.7 32
2019-04-11 14:00:00 21.7 15 Sudeste 28 Sudeste 0 1008.3 -0.8 30
2019-04-11 13:00:00 21.2 6 Sudeste 18 Oeste 0 1008.6 -0.5 25
2019-04-11 12:00:00 19.6 10 Noroeste 26 Norte 0 1009 0.1 27
2019-04-11 11:00:00 17.7 9 Noroeste 23 Norte 0 1009.1 0.4 31
2019-04-11 10:00:00 15.7 10 Oeste 27 Oeste 0 1009.1 1 41
2019-04-11 09:00:00 13.3 10 Noroeste 22 Oeste 0 1008.9 0.8 47
2019-04-11 08:00:00 11.5 13 Oeste 23 Oeste 0 1008.7 0.6 53
2019-04-11 07:00:00 11.2 14 Oeste 22 Oeste 0 1008.1 0.2 55
2019-04-11 06:00:00 11.4 11 Oeste 23 Noroeste 0 1008.1 0.3 55
2019-04-11 05:00:00 12.3 14 Oeste 22 Oeste 0 1008.1 0.2 53
2019-04-11 04:00:00 12.4 10 Oeste 16 Noroeste 0 1007.9 0 54
2019-04-11 03:00:00 13.2 6 Noroeste 24 Noroeste 0 1007.8 0.1 51
2019-04-11 02:00:00 13.9 14 Oeste 26 Oeste 0 1007.9 -0.1 51
2019-04-11 01:00:00 14.7 9 Noroeste 24 Noroeste 0 1007.9 0.8 49
2019-04-11 00:00:00 13.8 5 Noroeste 27 Norte 0 1007.7 1.4 51
2019-04-10 23:00:00 14.6 9 Oeste 17 Nordeste 0 1008 2.6 57
2019-04-10 22:00:00 15.2 4 Norte 9 Norte 0 1007.1 2 52
2019-04-10 21:00:00 15.5 2 Nordeste 10 Sur 0 1006.3 1.7 59
2019-04-10 20:00:00 16.1 4 Sudoeste 10 Sur 0 1005.4 0.8 59
2019-04-10 19:00:00 16.9 6 Sur 10 Sudoeste 0 1005.1 0.7 44
2019-04-10 18:00:00 17.2 7 Sudoeste 16 Sur 0 1004.6 -0.2 43
2019-04-10 17:00:00 17.1 5 Noroeste 16 Noroeste 0 1004.6 0.1 43
2019-04-10 16:00:00 16.4 5 Sudoeste 26 Norte 0.2 1004.4 -0.5 47
2019-04-10 15:00:00 19.1 12 Sudeste 24 Este 0 1004.8 -0.4 35
2019-04-10 14:00:00 19.3 9 Sudeste 22 Sudeste 0 1004.5 -0.8 35
2019-04-10 13:00:00 18.2 6 Sudeste 23 Sudeste 0 1004.9 -0.1 38
2019-04-10 12:00:00 18.4 5 Este 18 Oeste 0 1005.2 0.3 35
2019-04-10 11:00:00 17.8 8 Oeste 23 Sudoeste 0 1005.3 0.8 35
2019-04-10 10:00:00 16.2 10 Oeste 21 Oeste 0 1005 0.8 40
2019-04-10 09:00:00 14.3 11 Oeste 19 Oeste 0 1004.9 1 47
2019-04-10 08:00:00 12.6 6 Noroeste 15 Oeste 0 1004.5 0.3 51
2019-04-10 07:00:00 13 6 Noroeste 18 Oeste 0 1004.2 -0.1 50
2019-04-10 06:00:00 13.5 13 Oeste 19 Oeste 0 1003.9 -0.6 48
2019-04-10 05:00:00 13.5 9 Oeste 18 Noroeste 0 1004.2 -0.5 50
2019-04-10 04:00:00 13.5 5 Noroeste 14 Oeste 0 1004.3 -0.4 49
2019-04-10 03:00:00 14.5 9 Oeste 16 Oeste 0 1004.5 0 45
2019-04-10 02:00:00 14.4 5 Oeste 14 Norte 0 1004.7 0 45
2019-04-10 01:00:00 13.7 4 Norte 17 Noroeste 0 1004.7 0.3 48
2019-04-10 00:00:00 14.4 14 Oeste 32 Oeste 0 1004.5 0.7 47
2019-04-09 23:00:00 14.6 19 Oeste 35 Oeste 0 1004.7 1.2 47
2019-04-09 22:00:00 15.3 17 Oeste 28 Oeste 0 1004.4 1.3 50
2019-04-09 21:00:00 15.9 13 Oeste 22 Oeste 0 1003.8 1.1 46
2019-04-09 20:00:00 16.3 13 Oeste 44 Oeste 0 1003.5 1.3 45
2019-04-09 19:00:00 18.7 21 Oeste 42 Sudoeste 0 1003.1 0.9 34
2019-04-09 18:00:00 19.4 4 Norte 24 Nordeste 0 1002.7 -0.1 34
2019-04-09 17:00:00 21 11 Nordeste 37 Oeste 0 1002.2 -1.5 28
2019-04-09 16:00:00 22.1 24 Oeste 39 Oeste 0 1002.2 -2.2 23
2019-04-09 15:00:00 22.4 10 Oeste 28 Oeste 0 1002.8 -2.3 23
2019-04-09 14:00:00 22.4 14 Sudoeste 30 Oeste 0 1003.7 -1.7 24
2019-04-09 13:00:00 21.3 14 Sudoeste 28 Sudoeste 0 1004.4 -1 28
2019-04-09 12:00:00 20.2 15 Oeste 30 Oeste 0 1005.1 -0.6 30
2019-04-09 11:00:00 18.4 10 Noroeste 25 Noroeste 0 1005.4 0.3 34
2019-04-09 10:00:00 16.4 14 Oeste 28 Oeste 0 1005.4 1.1 42
2019-04-09 09:00:00 14.4 10 Oeste 23 Noroeste 0 1005.7 1.6 49
2019-04-09 08:00:00 12.9 12 Oeste 31 Oeste 0 1005.1 0.8 54
2019-04-09 07:00:00 13.3 17 Oeste 39 Oeste 0 1004.3 -0.1 52
2019-04-09 06:00:00 13.8 18 Oeste 40 Oeste 0 1004.1 -0.3 53
2019-04-09 05:00:00 14.1 20 Oeste 31 Oeste 0 1004.3 -0.6 56
2019-04-09 04:00:00 13.4 10 Oeste 23 Oeste 0 1004.4 -0.5 66
2019-04-09 03:00:00 13 6 Noroeste 18 Oeste 0 1004.4 -0.5 79
2019-04-09 02:00:00 13.1 6 Oeste 12 Noroeste 0 1004.9 -0.1 82
2019-04-09 01:00:00 13.1 4 Noroeste 9 Oeste 0 1004.9 0.4 80
2019-04-09 00:00:00 14.1 5 Sudoeste 11 Sudoeste 0 1004.9 0.8 79
2019-04-08 23:00:00 15 7 Sudoeste 14 Sudoeste 0 1005 1.2 77
2019-04-08 22:00:00 16.2 4 Norte 12 Norte 0 1004.5 1.2 71
2019-04-08 21:00:00 16.6 3 Nordeste 15 Nordeste 0 1004.1 1.1 77
2019-04-08 20:00:00 17.7 6 Nordeste 24 Nordeste 0 1003.8 0.5 73
2019-04-08 19:00:00 18.4 12 Nordeste 31 Nordeste 0.2 1003.3 -0.6 68
2019-04-08 18:00:00 21.4 13 Sur 29 Sur 0 1003 -1.9 49
2019-04-08 17:00:00 23.3 13 Sur 23 Sudeste 0 1003.3 -1.9 38
2019-04-08 16:00:00 22.9 10 Sudeste 21 Sur 0 1003.9 -1.5 38
2019-04-08 15:00:00 21.9 10 Sudeste 24 Sur 0 1004.9 -1.1 44
2019-04-08 14:00:00 22.1 14 Sur 30 Sur 0 1005.2 -1.1 44
2019-04-08 13:00:00 22.2 6 Este 16 Sudeste 0 1005.4 -1 39
2019-04-08 12:00:00 20.9 6 Sur 13 Sudoeste 0 1006 -0.4 41
2019-04-08 11:00:00 17.2 7 Sudoeste 14 Noroeste 0 1006.3 0 51
2019-04-08 10:00:00 14.7 9 Oeste 14 Oeste 0 1006.4 0.2 54
2019-04-08 09:00:00 13.1 8 Oeste 15 Oeste 0 1006.4 0.1 59
2019-04-08 08:00:00 12.9 5 Oeste 12 Sudoeste 0 1006.3 -0.5 59
2019-04-08 07:00:00 13 10 Sudoeste 17 Sudoeste 0 1006.2 -1 56
2019-04-08 06:00:00 13.5 8 Oeste 15 Sudoeste 0 1006.3 -1.2 55
2019-04-08 05:00:00 14.1 7 Oeste 17 Sudoeste 0 1006.8 -0.9 52
2019-04-08 04:00:00 13.9 5 Noroeste 17 Noroeste 0 1007.2 -0.6 56
2019-04-08 03:00:00 14 9 Noroeste 15 Noroeste 0 1007.5 -0.2 45
2019-04-08 02:00:00 13.1 4 Noroeste 15 Oeste 0 1007.7 0.3 49
2019-04-08 01:00:00 12.7 8 Sudoeste 13 Sudoeste 0 1007.8 0.5 54
2019-04-08 00:00:00 14.3 2 Noroeste 7 Norte 0 1007.7 1.2 51
2019-04-07 23:00:00 15.6 5 Norte 10 Nordeste 0 1007.4 1.7 47
2019-04-07 22:00:00 16.4 6 Norte 10 Nordeste 0 1007.3 2.5 40
2019-04-07 21:00:00 16.8 4 Nordeste 12 Nordeste 0 1006.5 2.5 36
2019-04-07 20:00:00 17.9 8 Norte 19 Oeste 0 1005.7 1.9 33
2019-04-07 19:00:00 19 12 Oeste 35 Oeste 0 1004.8 1.3 26
2019-04-07 18:00:00 19.5 23 Oeste 45 Oeste 0 1004 0.5 25
2019-04-07 17:00:00 19.7 17 Oeste 43 Oeste 0 1003.8 0.4 25
2019-04-07 16:00:00 19.8 14 Oeste 41 Sudoeste 0 1003.5 0.4 26
2019-04-07 15:00:00 19 21 Oeste 41 Oeste 0 1003.5 0.7 27
2019-04-07 14:00:00 18.5 23 Oeste 40 Sudoeste 0 1003.4 1.5 29
2019-04-07 13:00:00 17 17 Oeste 44 Noroeste 0 1003.1 1.6 31
2019-04-07 12:00:00 16.9 18 Oeste 46 Oeste 0 1002.8 1.9 29
2019-04-07 11:00:00 15.1 12 Oeste 23 Oeste 0 1001.9 1.7 39
2019-04-07 10:00:00 13.2 12 Oeste 21 Oeste 0 1001.5 1.9 43
2019-04-07 09:00:00 11.8 12 Oeste 23 Sudoeste 0 1000.9 2 48
2019-04-07 08:00:00 11.3 15 Sudoeste 26 Oeste 0 1000.2 1.6 48
2019-04-07 07:00:00 11.9 12 Sudoeste 26 Oeste 0 999.6 1.4 49
2019-04-07 06:00:00 12.4 14 Oeste 30 Oeste 0 998.9 0.8 48
2019-04-07 05:00:00 12 14 Oeste 27 Sudoeste 0 998.6 0.2 51
2019-04-07 04:00:00 11.9 12 Oeste 30 Sudoeste 0 998.2 -0.6 52
2019-04-07 03:00:00 11.9 12 Oeste 23 Oeste 0 998.1 -0.7 53
2019-04-07 02:00:00 11.4 10 Oeste 19 Oeste 0 998.4 -0.1 56
2019-04-07 01:00:00 11.4 11 Oeste 21 Oeste 0 998.8 0.8 57
2019-04-07 00:00:00 11.5 10 Oeste 18 Sudoeste 0 998.8 1.4 59
2019-04-06 23:00:00 12 11 Sudoeste 19 Sudoeste 0 998.5 1.5 55
2019-04-06 22:00:00 12.9 13 Sudoeste 23 Oeste 0 998 1.2 50
2019-04-06 21:00:00 13.2 10 Sudoeste 25 Sudoeste 0 997.4 0.3 50
2019-04-06 20:00:00 14.2 10 Sur 18 Sur 0 997 0.2 51
2019-04-06 19:00:00 15.1 7 Sudoeste 19 Oeste 0 996.8 0.4 48
2019-04-06 18:00:00 14.4 12 Oeste 30 Noroeste 0 997.1 0.3 54
2019-04-06 17:00:00 15.6 15 Sudoeste 46 Oeste 0 996.8 -0.2 44
2019-04-06 16:00:00 17.3 11 Sudoeste 28 Sudoeste 0 996.4 -0.8 32
2019-04-06 15:00:00 16.7 14 Oeste 31 Sudoeste 0 996.8 -0.5 34
2019-04-06 14:00:00 16.7 10 Sudoeste 21 Sur 0 997 -0.2 34
2019-04-06 13:00:00 15.4 13 Oeste 31 Oeste 0 997.2 0.2 34
2019-04-06 12:00:00 15.3 13 Oeste 25 Sudoeste 0 997.3 0.5 35
2019-04-06 11:00:00 14.3 12 Oeste 29 Sudoeste 0 997.2 1.1 43
2019-04-06 10:00:00 12.4 13 Sudoeste 25 Sudoeste 0 997 1.5 49
2019-04-06 09:00:00 8.8 12 Sudoeste 17 Sudoeste 0 996.8 1.7 62
2019-04-06 08:00:00 7.2 8 Sudoeste 13 Sudoeste 0 996.1 1.3 67
2019-04-06 07:00:00 7.6 7 Sur 15 Sur 0 995.5 1.1 69
2019-04-06 06:00:00 8.6 10 Sur 17 Sudoeste 0 995.1 1 62
2019-04-06 05:00:00 9 9 Sudoeste 13 Sudoeste 0 994.8 0.6 61
2019-04-06 04:00:00 10.9 6 Noroeste 36 Noroeste 0 994.4 0.4 51
2019-04-06 03:00:00 10.3 11 Oeste 24 Noroeste 0 994.1 0.3 53
2019-04-06 02:00:00 9.5 9 Oeste 18 Oeste 0 994.2 0.7 60
2019-04-06 01:00:00 8.4 6 Sudoeste 13 Sur 0 994 0.1 75
2019-04-06 00:00:00 9.2 3 Oeste 15 Sur 0 993.8 0.4 80
2019-04-05 23:00:00 9.7 9 Sudoeste 18 Sur 0 993.5 0.3 86
2019-04-05 22:00:00 10.7 10 Sudoeste 20 Sur 0 993.9 -0.2 83
2019-04-05 21:00:00 11.2 8 Sudoeste 13 Sur 0 993.4 -0.2 87
2019-04-05 20:00:00 11.4 6 Sudeste 15 Sur 0.4 993.2 -0.9 84
2019-04-05 19:00:00 12.2 8 Sudoeste 16 Sudoeste 0.4 994.1 0.7 81
2019-04-05 18:00:00 12.8 7 Sudeste 21 Sudoeste 0.6 993.6 -0.2 81
2019-04-05 17:00:00 15.1 19 Oeste 41 Sudoeste 0 994.1 -0.2 51
2019-04-05 16:00:00 19.6 18 Sur 33 Sudeste 0 993.4 -1.6 43
2019-04-05 15:00:00 19 18 Sur 36 Sur 0 993.8 -1.9 41
2019-04-05 14:00:00 19.2 18 Sur 35 Sudeste 0 994.3 -1.7 44
2019-04-05 13:00:00 18.9 15 Sur 30 Sur 0 995 -1 43
2019-04-05 12:00:00 17 5 Sudeste 14 Sur 0 995.7 -0.7 51
2019-04-05 11:00:00 14 4 Sudoeste 9 Sudoeste 0 996 -0.2 64
2019-04-05 10:00:00 12.1 3 Sudoeste 9 Oeste 0 996 -0.3 71
2019-04-05 09:00:00 9.7 5 Noroeste 11 Oeste 0 996.4 0.4 79
2019-04-05 08:00:00 9 4 Oeste 11 Oeste 0 996.2 -0.3 81
2019-04-05 07:00:00 9 5 Noroeste 14 Oeste 0 996.3 -0.5 79
2019-04-05 06:00:00 9.7 9 Oeste 20 Oeste 0 996 -1.3 77
2019-04-05 05:00:00 9.8 13 Oeste 21 Noroeste 0 996.5 -0.9 80
2019-04-05 04:00:00 9.7 13 Oeste 21 Oeste 0 996.8 -1.1 81
2019-04-05 03:00:00 9.6 15 Oeste 21 Oeste 0 997.3 -0.8 83
2019-04-05 02:00:00 10.2 9 Oeste 13 Noroeste 0 997.4 -1.2 82
2019-04-05 01:00:00 11.8 3 Noroeste 5 Norte 0 997.9 -0.8 75
2019-04-05 00:00:00 12.6 3 Nordeste 6 Este 0 998.1 -0.1 72
2019-04-04 23:00:00 12.8 2 Sudeste 10 Sur 0 998.6 0.7 71
2019-04-04 22:00:00 12.8 5 Sur 13 Sur 0 998.7 1 70
2019-04-04 21:00:00 13 6 Sur 17 Sur 0 998.2 0.6 67
2019-04-04 20:00:00 13.8 7 Sudeste 24 Sudeste 0 997.9 0.3 59
2019-04-04 19:00:00 14.9 12 Sur 26 Sudeste 0 997.7 -0.2 54
2019-04-04 18:00:00 15.7 12 Sudeste 25 Este 0 997.6 -0.8 46
2019-04-04 17:00:00 16 13 Sudeste 28 Este 0 997.6 -1 38
2019-04-04 16:00:00 17.1 10 Sudeste 26 Sudeste 0 997.9 -1 29
2019-04-04 15:00:00 16.8 14 Sudeste 27 Sur 0 998.4 -0.8 31
2019-04-04 14:00:00 16.6 15 Sudeste 28 Este 0 998.6 -0.7 27
2019-04-04 13:00:00 16.8 15 Sur 25 Sur 0 998.9 -0.1 31
2019-04-04 12:00:00 16 4 Nordeste 14 Sur 0 999.2 0.3 28
2019-04-04 11:00:00 13 4 Norte 24 Oeste 0 999.3 1.1 33
2019-04-04 10:00:00 11.5 13 Oeste 22 Oeste 0 999 1.3 44
2019-04-04 09:00:00 10.5 15 Oeste 22 Oeste 0 998.9 1.5 49
2019-04-04 08:00:00 9.5 5 Noroeste 12 Noroeste 0 998.2 0.9 55
2019-04-04 07:00:00 10.4 4 Norte 16 Oeste 0 997.7 0.5 55
2019-04-04 06:00:00 10.1 3 Noroeste 8 Sudeste 0 997.4 -0.3 50
2019-04-04 05:00:00 10.6 5 Sudeste 10 Nordeste 0 997.3 -0.5 47
2019-04-04 04:00:00 11.1 5 Nordeste 10 Norte 0 997.2 -0.7 48
2019-04-04 03:00:00 11.7 2 Oeste 12 Norte 0 997.7 -0.1 45
2019-04-04 02:00:00 12.1 8 Norte 19 Noroeste 0 997.8 0.5 44
2019-04-04 01:00:00 12.3 12 Norte 28 Nordeste 0 997.9 1.6 44
2019-04-04 00:00:00 12.2 14 Norte 30 Norte 0 997.8 2.1 48
2019-04-03 23:00:00 13.2 16 Norte 28 Norte 0 997.3 2.1 50
2019-04-03 22:00:00 14.1 3 Sur 7 Nordeste 0 996.3 1.1 57
2019-04-03 21:00:00 14.5 4 Norte 14 Norte 0 995.7 0.6 59
2019-04-03 20:00:00 14.9 10 Norte 22 Norte 0 995.2 -0.1 63
2019-04-03 19:00:00 15.4 9 Nordeste 27 Nordeste 0 995.2 -0.3 75
2019-04-03 18:00:00 15.8 12 Nordeste 32 Nordeste 0 995.1 -1.3 68
2019-04-03 17:00:00 15.8 15 Este 33 Nordeste 0 995.3 -2.1 80
2019-04-03 16:00:00 16.5 8 Este 21 Este 0 995.5 -3.3 75
2019-04-03 15:00:00 18.6 6 Este 21 Sudeste 0 996.4 -3.8 63
2019-04-03 14:00:00 18.4 7 Este 19 Sudeste 0 997.4 -3.5 65
2019-04-03 13:00:00 17.1 13 Este 20 Este 0 998.8 -2.8 73
2019-04-03 12:00:00 18.7 9 Sudeste 18 Sur 0 1000.2 -1.8 67
2019-04-03 11:00:00 16.3 5 Sur 13 Este 0 1000.9 -1.1 69
2019-04-03 10:00:00 13.8 3 Sudoeste 9 Sudoeste 0 1001.6 -0.8 71
2019-04-03 09:00:00 11.3 4 Oeste 14 Oeste 0 1002 -0.7 81
2019-04-03 08:00:00 10.4 3 Noroeste 8 Noroeste 0 1002 -0.9 86
2019-04-03 07:00:00 10.2 5 Noroeste 10 Norte 0 1002.4 -1.3 89
2019-04-03 06:00:00 10.7 6 Norte 15 Noroeste 0 1002.7 -1.8 82
2019-04-03 05:00:00 11.3 8 Noroeste 16 Oeste 0 1002.9 -2.3 79
2019-04-03 04:00:00 11.7 8 Noroeste 19 Oeste 0 1003.7 -2.3 82
2019-04-03 03:00:00 12.1 13 Oeste 20 Oeste 0 1004.5 -2 82
2019-04-03 02:00:00 12.8 8 Noroeste 15 Noroeste 0 1005.2 -1.6 82
2019-04-03 01:00:00 13.2 7 Oeste 14 Oeste 0 1006 -0.8 86
2019-04-03 00:00:00 13.4 4 Noroeste 9 Noroeste 0 1006.5 -0.1 86
2019-04-02 23:00:00 14.1 4 Noroeste 11 Sudoeste 0 1006.8 0.4 88
2019-04-02 22:00:00 14.8 5 Sur 10 Sur 0 1006.8 0.3 87
2019-04-02 21:00:00 16 3 Sudoeste 9 Sur 0 1006.6 -0.5 76
2019-04-02 20:00:00 17.4 7 Sur 15 Sur 0 1006.4 -1 70
2019-04-02 19:00:00 18.4 8 Sur 17 Sur 0 1006.5 -1.4 63
2019-04-02 18:00:00 17.4 6 Sur 12 Sur 0 1007.1 -1.5 75
2019-04-02 17:00:00 17.8 5 Este 14 Este 0 1007.4 -1.3 67
2019-04-02 16:00:00 17.1 5 Este 13 Norte 0 1007.9 -1.1 71
2019-04-02 15:00:00 17.1 6 Este 16 Este 0 1008.6 -0.8 79
2019-04-02 14:00:00 18.3 9 Este 19 Este 0 1008.7 -0.7 61
2019-04-02 13:00:00 18.3 6 Este 17 Este 0 1009 -0.4 64
2019-04-02 12:00:00 18.1 5 Este 13 Este 0 1009.4 0.2 60
2019-04-02 11:00:00 15.3 3 Este 11 Norte 0 1009.4 0.8 73
2019-04-02 10:00:00 13 3 Norte 6 Noroeste 0 1009.4 0.8 83
2019-04-02 09:00:00 9.7 4 Noroeste 7 Noroeste 0 1009.2 0.5 88
2019-04-02 08:00:00 8.3 4 Noroeste 9 Oeste 0 1008.6 -0.4 91
2019-04-02 07:00:00 8.7 5 Noroeste 10 Noroeste 0 1008.6 -0.9 90
2019-04-02 06:00:00 8.9 5 Noroeste 10 Oeste 0 1008.7 -1.2 90
2019-04-02 05:00:00 9.4 5 Noroeste 10 Noroeste 0 1009 -1.4 89
2019-04-02 04:00:00 9.9 6 Oeste 9 Oeste 0 1009.5 -1.1 90
2019-04-02 03:00:00 10 4 Noroeste 12 Oeste 0 1009.9 -0.7 87
2019-04-02 02:00:00 10.2 4 Noroeste 10 Oeste 0 1010.4 -0.5 88
2019-04-02 01:00:00 10.6 4 Noroeste 13 Oeste 0 1010.6 -0.3 88
2019-04-02 00:00:00 11.3 2 Noroeste 6 Oeste 0 1010.6 0.4 88
2019-04-01 23:00:00 11.8 4 Sudoeste 7 Sur 0 1010.9 1.2 86
2019-04-01 22:00:00 12.4 3 Sur 7 Sur 0 1010.9 1.7 83
2019-04-01 21:00:00 13.3 4 Sur 12 Sur 0 1010.2 0.8 77
2019-04-01 20:00:00 14.8 6 Sur 12 Este 0 1009.7 0.2 65
2019-04-01 19:00:00 15.9 6 Sudeste 14 Sudeste 0 1009.2 -0.6 56
2019-04-01 18:00:00 16.7 5 Sudeste 12 Este 0 1009.4 -0.7 50
2019-04-01 17:00:00 16.9 5 Este 14 Este 0 1009.5 -1 50
2019-04-01 16:00:00 17 5 Sudeste 12 Oeste 0 1009.8 -0.9 49
2019-04-01 15:00:00 16.7 5 Oeste 15 Este 0 1010.1 -0.6 49
2019-04-01 14:00:00 16.6 6 Sudeste 14 Sudeste 0 1010.5 0.2 54
2019-04-01 13:00:00 15.5 4 Este 10 Sudeste 0 1010.7 1.1 53
2019-04-01 12:00:00 13.7 3 Norte 10 Oeste 0 1010.7 1.4 66
2019-04-01 11:00:00 12.4 5 Noroeste 15 Oeste 0 1010.3 1.4 78
2019-04-01 10:00:00 12.1 5 Noroeste 11 Noroeste 0 1009.6 1.2 78
2019-04-01 09:00:00 12 5 Noroeste 11 Noroeste 0 1009.3 1.2 78
2019-04-01 08:00:00 12 5 Norte 11 Norte 0 1008.9 0.8 82
2019-04-01 07:00:00 12.1 6 Norte 15 Norte 0 1008.4 0.1 86
2019-04-01 06:00:00 12 8 Norte 17 Nordeste 0 1008.1 -0.4 87
2019-04-01 05:00:00 11.8 5 Norte 11 Norte 0.2 1008.1 -0.6 91
2019-04-01 04:00:00 11.7 5 Norte 18 Norte 0.4 1008.3 -0.5 91
2019-04-01 03:00:00 11.2 6 Noroeste 14 Oeste 2 1008.5 -0.5 94
2019-04-01 02:00:00 11.2 8 Noroeste 15 Noroeste 2 1008.7 -0.3 93
2019-04-01 01:00:00 11.4 5 Noroeste 18 Norte 1.6 1008.8 0.1 91
2019-04-01 00:00:00 12 10 Norte 22 Nordeste 0.2 1009 0.4 83
2019-03-31 23:00:00 12 9 Norte 18 Norte 0.4 1009 0.5 87
2019-03-31 22:00:00 11.9 11 Norte 21 Norte 0.6 1008.7 0 87
2019-03-31 21:00:00 12.3 13 Norte 22 Norte 0.2 1008.6 0.3 86
2019-03-31 20:00:00 12.4 9 Norte 19 Norte 1.4 1008.5 0.1 89
2019-03-31 19:00:00 12.7 4 Nordeste 27 Nordeste 0.8 1008.7 0.2 90
2019-03-31 18:00:00 12.8 13 Nordeste 23 Nordeste 0.2 1008.3 -1.3 88
2019-03-31 17:00:00 12.9 10 Nordeste 24 Nordeste 0.4 1008.4 -1.5 89
2019-03-31 16:00:00 12.9 14 Nordeste 23 Norte 1.2 1008.5 -2.1 89
2019-03-31 15:00:00 13.2 4 Nordeste 13 Nordeste 0.6 1009.6 -1.4 85
2019-03-31 14:00:00 12.8 10 Norte 18 Norte 0.6 1009.9 -1.5 86
2019-03-31 13:00:00 12.2 10 Norte 17 Nordeste 1.8 1010.6 -0.6 86
2019-03-31 12:00:00 12.3 11 Norte 23 Norte 0.4 1011 0 81
2019-03-31 11:00:00 12.3 8 Norte 13 Norte 0.4 1011.4 0.4 79
2019-03-31 10:00:00 12.3 2 Norte 11 Noroeste 0.2 1011.2 -0.2 82
2019-03-31 09:00:00 12.3 4 Noroeste 10 Oeste 0.2 1011 -0.8 77
2019-03-31 08:00:00 11.8 5 Noroeste 12 Noroeste 0 1011 -1.4 73
2019-03-31 07:00:00 11.6 5 Noroeste 10 Noroeste 0 1011.4 -1.8 73
2019-03-31 06:00:00 11.6 5 Noroeste 9 Noroeste 0 1011.8 -2 75
2019-03-31 05:00:00 11.5 5 Noroeste 16 Norte 0 1012.4 -1.4 75
2019-03-31 03:00:00 11.1 4 Noroeste 9 Oeste 0 1013.8 -1 75
2019-03-31 01:00:00 11.2 4 Noroeste 11 Norte 0 1013.8 -1.7 74
2019-03-31 00:00:00 11.9 3 Noroeste 10 Norte 0 1014.6 -0.8 71
2019-03-30 23:00:00 12.3 4 Norte 16 Norte 0 1014.8 -0.7 70
2019-03-30 22:00:00 13.1 5 Norte 12 Norte 0 1015.5 0.6 68
2019-03-30 21:00:00 13.4 8 Norte 14 Nordeste 0 1015.4 1 67
2019-03-30 20:00:00 13 3 Este 13 Este 0 1015.5 0.9 70
2019-03-30 19:00:00 14 6 Este 20 Este 0 1014.9 -0.2 68
2019-03-30 18:00:00 14.6 9 Este 25 Este 0 1014.4 -1.4 62
2019-03-30 17:00:00 15.3 10 Este 26 Sudeste 0 1014.6 -1.9 59
2019-03-30 16:00:00 15.9 12 Este 26 Sudeste 0 1015.1 -2.1 56
2019-03-30 15:00:00 16.6 11 Este 25 Sudeste 0 1015.8 -1.9 47
2019-03-30 14:00:00 16.6 12 Este 29 Este 0 1016.5 -1.9 54
2019-03-30 13:00:00 16.2 9 Este 23 Este 0 1017.2 -1.5 55
2019-03-30 12:00:00 16.3 8 Este 19 Este 0 1017.7 -1.2 53
2019-03-30 11:00:00 15.7 7 Este 19 Este 0 1018.4 -0.3 54
2019-03-30 10:00:00 13.3 3 Norte 18 Oeste 0 1018.7 0.5 62
2019-03-30 09:00:00 10.8 12 Oeste 19 Oeste 0 1018.9 0.7 62
2019-03-30 08:00:00 8.2 12 Oeste 20 Oeste 0 1018.7 0.4 70
2019-03-30 07:00:00 7.2 9 Oeste 18 Oeste 0 1018.2 -0.6 76
2019-03-30 06:00:00 7.4 10 Oeste 17 Oeste 0 1018.2 -1 77
2019-03-30 05:00:00 7.7 10 Oeste 17 Noroeste 0 1018.3 -1.5 78
2019-03-30 04:00:00 8.2 8 Oeste 17 Oeste 0 1018.8 -1.3 76
2019-03-30 03:00:00 9 7 Noroeste 18 Noroeste 0 1019.2 -1.2 76
2019-03-30 02:00:00 9.6 8 Oeste 13 Oeste 0 1019.8 -0.8 78
2019-03-30 01:00:00 9.8 6 Oeste 12 Oeste 0 1020.1 -0.7 79
2019-03-30 00:00:00 10.3 5 Noroeste 9 Oeste 0 1020.4 0 77
2019-03-29 23:00:00 11.6 4 Noroeste 7 Noroeste 0 1020.6 0.6 74
2019-03-29 22:00:00 12.7 4 Noroeste 7 Noroeste 0 1020.8 0.9 72
2019-03-29 21:00:00 13.2 4 Nordeste 8 Nordeste 0 1020.4 0.5 71
2019-03-29 20:00:00 13.4 3 Nordeste 11 Este 0 1020 0.2 73
2019-03-29 19:00:00 14.6 5 Este 15 Este 0 1019.9 0 67
2019-03-29 18:00:00 15.4 6 Este 19 Este 0 1019.9 -0.6 63
2019-03-29 17:00:00 16.3 11 Este 23 Este 0 1019.8 -1.4 59
2019-03-29 16:00:00 17.1 9 Este 22 Este 0 1019.9 -1.9 55
2019-03-29 15:00:00 17.8 12 Sudeste 23 Este 0 1020.5 -1.7 46
2019-03-29 14:00:00 17.2 10 Este 24 Sudeste 0 1021.2 -1.3 55
2019-03-29 13:00:00 17.8 10 Este 22 Este 0 1021.8 -0.9 56
2019-03-29 12:00:00 17.4 11 Este 22 Este 0 1022.2 -0.3 54
2019-03-29 11:00:00 16.6 6 Este 14 Este 0 1022.5 0.4 58
2019-03-29 10:00:00 14.1 7 Este 14 Este 0 1022.7 1 66
2019-03-29 09:00:00 11.2 3 Sudeste 8 Noroeste 0 1022.5 1.2 57
2019-03-29 08:00:00 8.7 5 Noroeste 17 Noroeste 0 1022.1 0.9 47
2019-03-29 07:00:00 7.3 9 Oeste 24 Oeste 0 1021.7 0.2 48
2019-03-29 06:00:00 7.2 10 Oeste 21 Oeste 0 1021.3 -0.4 51
2019-03-29 05:00:00 7.3 13 Noroeste 23 Noroeste 0 1021.2 -0.8 53
2019-03-29 04:00:00 7.5 11 Oeste 18 Oeste 0 1021.5 -0.6 62
2019-03-29 03:00:00 7.9 8 Noroeste 16 Noroeste 0 1021.7 -0.6 68
2019-03-29 02:00:00 8.3 6 Noroeste 15 Noroeste 0 1022 -0.3 68
2019-03-29 01:00:00 8.9 9 Oeste 17 Oeste 0 1022.1 -0.4 72
2019-03-29 00:00:00 9.7 8 Oeste 15 Oeste 0 1022.3 0.1 70
2019-03-28 23:00:00 9.9 6 Noroeste 12 Noroeste 0 1022.3 0.7 77
2019-03-28 22:00:00 11.1 4 Oeste 8 Noroeste 0 1022.5 1.1 74
2019-03-28 21:00:00 12.2 3 Sudoeste 5 Sur 0 1022.2 1.3 75
2019-03-28 20:00:00 13.2 3 Sudoeste 9 Sur 0 1021.6 0.8 71
2019-03-28 19:00:00 14.6 5 Sudeste 15 Este 0 1021.4 0.4 62
2019-03-28 18:00:00 15.7 10 Sudeste 19 Este 0 1020.9 -0.4 54
2019-03-28 17:00:00 16.6 9 Sudeste 20 Este 0 1020.8 -0.9 45
2019-03-28 16:00:00 17.4 12 Sudeste 23 Este 0 1021 -1.1 40
2019-03-28 15:00:00 18.2 12 Sudeste 27 Este 0 1021.3 -0.9 35
2019-03-28 14:00:00 18.1 12 Sudeste 24 Sudeste 0 1021.7 -0.8 36
2019-03-28 13:00:00 17.3 12 Este 24 Este 0 1022.1 -0.3 45
2019-03-28 12:00:00 17.8 13 Este 22 Sudeste 0 1022.2 -0.3 46
2019-03-28 11:00:00 17.5 8 Sudeste 15 Este 0 1022.5 0.1 40
2019-03-28 10:00:00 13.7 3 Nordeste 10 Oeste 0 1022.4 0.4 42
2019-03-28 09:00:00 10.9 6 Oeste 19 Oeste 0 1022.5 1.1 46
2019-03-28 08:00:00 8.5 6 Noroeste 15 Noroeste 0 1022.4 1.2 52
2019-03-28 07:00:00 7.4 7 Noroeste 19 Oeste 0 1022 0.9 56
2019-03-28 06:00:00 7.6 12 Oeste 22 Oeste 0 1021.4 0.3 55
2019-03-28 05:00:00 7.3 13 Oeste 20 Noroeste 0 1021.2 -0.4 58
2019-03-28 04:00:00 7.9 9 Noroeste 18 Oeste 0 1021.1 -0.5 56
2019-03-28 03:00:00 7.8 8 Oeste 17 Noroeste 0 1021.1 -0.1 58
2019-03-28 02:00:00 8 6 Noroeste 12 Noroeste 0 1021.6 0.7 60
2019-03-28 01:00:00 8.6 5 Noroeste 10 Oeste 0 1021.6 1.3 60
2019-03-28 00:00:00 9.3 4 Noroeste 13 Oeste 0 1021.2 1.2 58
2019-03-27 23:00:00 9.8 3 Noroeste 10 Noroeste 0 1020.9 1.3 63
2019-03-27 22:00:00 11.3 0 Calma 8 Sudoeste 0 1020.3 1.3 61
2019-03-27 21:00:00 12.4 6 Sudoeste 12 Sudoeste 0 1020 1.2 57
2019-03-27 20:00:00 13.1 4 Sudoeste 10 Sudoeste 0 1019.6 1.1 57
2019-03-27 19:00:00 14.8 6 Sur 15 Sur 0 1019 0.6 52
2019-03-27 18:00:00 16.3 9 Sur 18 Sur 0 1018.8 0.3 44
2019-03-27 17:00:00 17 11 Sudeste 21 Sudeste 0 1018.5 -0.1 34
2019-03-27 16:00:00 17.8 12 Sudeste 23 Sur 0 1018.4 -0.8 39
2019-03-27 15:00:00 18.1 12 Sudeste 28 Sudeste 0 1018.5 -0.7 32
2019-03-27 14:00:00 18 15 Este 27 Sudeste 0 1018.6 -0.4 30
2019-03-27 13:00:00 17.8 14 Este 23 Sudeste 0 1019.2 0.2 44
2019-03-27 12:00:00 17.7 11 Este 19 Este 0 1019.2 0.4 48
2019-03-27 11:00:00 17.2 7 Sudeste 15 Este 0 1019 0.4 48
2019-03-27 10:00:00 14.6 5 Este 12 Norte 0 1019 0.8 53
2019-03-27 09:00:00 12 5 Noroeste 17 Oeste 0 1018.8 0.8 57
2019-03-27 08:00:00 10.3 8 Noroeste 16 Noroeste 0 1018.6 0.6 64
2019-03-27 07:00:00 9.3 9 Oeste 18 Oeste 0 1018.2 0.1 72
2019-03-27 06:00:00 9.5 12 Oeste 17 Oeste 0 1018 -0.6 75
2019-03-27 05:00:00 9.9 6 Oeste 11 Oeste 0 1018 -0.8 75
2019-03-27 04:00:00 10.2 8 Oeste 11 Noroeste 0 1018.1 -0.8 73
2019-03-27 03:00:00 10.9 5 Noroeste 8 Noroeste 0 1018.6 -0.4 70
2019-03-27 02:00:00 11.5 3 Noroeste 9 Noroeste 0 1018.8 -0.1 67
2019-03-27 01:00:00 12.2 4 Noroeste 9 Noroeste 0 1018.9 0.1 65
2019-03-27 00:00:00 12.8 2 Oeste 7 Sudoeste 0 1019 0.6 61
2019-03-26 23:00:00 13.4 5 Sudoeste 12 Sur 0 1018.9 1.6 59
2019-03-26 22:00:00 13.8 5 Sudeste 16 Este 0 1018.8 2.6 57
2019-03-26 21:00:00 13.7 8 Sudeste 18 Este 0 1018.4 3.2 58
2019-03-26 20:00:00 14.1 8 Sudeste 22 Sudeste 0 1017.3 2.3 61
2019-03-26 19:00:00 15 9 Sudeste 20 Sudeste 0 1016.2 1.5 64
2019-03-26 18:00:00 16.3 9 Sudeste 22 Sur 0 1015.2 0.2 62
2019-03-26 17:00:00 17.5 12 Sur 24 Sur 0 1015 -0.4 56
2019-03-26 16:00:00 18.7 12 Sur 25 Sur 0 1014.7 -1.1 53
2019-03-26 15:00:00 19.4 13 Sur 26 Este 0 1015 -1.1 47
2019-03-26 14:00:00 18.8 14 Sudeste 27 Este 0 1015.4 -0.8 49
2019-03-26 13:00:00 18.5 18 Este 31 Este 0 1015.8 -0.3 46
2019-03-26 12:00:00 18.4 16 Este 26 Este 0 1016.1 0 43
2019-03-26 11:00:00 17.8 8 Este 24 Este 0 1016.2 0.5 34
2019-03-26 10:00:00 14.9 4 Este 13 Este 0 1016.1 1.3 44
2019-03-26 09:00:00 13.5 5 Este 14 Oeste 0 1016.1 2.6 48
2019-03-26 08:00:00 11.7 8 Oeste 14 Noroeste 0 1015.7 2.7 46
2019-03-26 07:00:00 10.7 6 Noroeste 15 Noroeste 0 1014.8 2 47
2019-03-26 06:00:00 11 9 Noroeste 18 Oeste 0 1013.5 0.8 46
2019-03-26 05:00:00 10.9 9 Oeste 17 Oeste 0 1013 0 48
2019-03-26 04:00:00 11.8 10 Oeste 17 Noroeste 0 1012.8 -0.2 46
2019-03-26 03:00:00 12.4 10 Noroeste 18 Noroeste 0 1012.7 -0.2 44
2019-03-26 02:00:00 11.4 7 Oeste 13 Noroeste 0 1013 0.1 52
2019-03-26 01:00:00 11.8 6 Noroeste 13 Noroeste 0 1013 0.3 52
2019-03-26 00:00:00 12 7 Noroeste 13 Oeste 0 1012.9 0.6 54
2019-03-25 23:00:00 12.2 9 Oeste 13 Oeste 0 1012.9 1 55
2019-03-25 22:00:00 13.3 5 Noroeste 10 Noroeste 0 1012.7 1 57
2019-03-25 21:00:00 14.4 0 Calma 5 Este 0 1012.3 0.4 62
2019-03-25 20:00:00 15.6 0 Calma 9 Este 0 1011.9 -0.3 60
2019-03-25 19:00:00 17.2 5 Este 12 Sudeste 0 1011.7 -0.8 46
2019-03-25 18:00:00 18.4 8 Sudeste 16 Este 0 1011.9 -1.1 42
2019-03-25 17:00:00 19.4 8 Sudeste 15 Este 0 1012.2 -1.7 40
2019-03-25 16:00:00 20.6 8 Sudeste 17 Sudeste 0 1012.5 -2.2 40
2019-03-25 15:00:00 21.2 9 Sudeste 22 Sudeste 0 1013 -2 39
2019-03-25 14:00:00 21.4 12 Sudeste 23 Sudeste 0 1013.9 -1.5 37
2019-03-25 13:00:00 21.4 12 Sudeste 20 Este 0 1014.7 -0.8 34
2019-03-25 12:00:00 21 10 Sudeste 18 Este 0 1015 -0.1 34
2019-03-25 11:00:00 20.1 7 Este 14 Sudeste 0 1015.4 0.5 37
2019-03-25 10:00:00 17.5 6 Sudeste 12 Este 0 1015.5 0.9 36
2019-03-25 09:00:00 14.9 5 Noroeste 20 Oeste 0 1015.1 0.6 39
2019-03-25 08:00:00 12.2 11 Oeste 20 Oeste 0 1014.9 0.1 43
2019-03-25 07:00:00 10.6 8 Noroeste 19 Noroeste 0 1014.6 -0.6 47
2019-03-25 06:00:00 11 11 Noroeste 21 Oeste 0 1014.5 -1 46
2019-03-25 05:00:00 11 12 Noroeste 21 Noroeste 0 1014.8 -1.1 46
2019-03-25 04:00:00 10.9 10 Oeste 19 Noroeste 0 1015.2 -0.9 49
2019-03-25 03:00:00 10.8 5 Noroeste 11 Noroeste 0 1015.5 -0.6 51
2019-03-25 02:00:00 11.7 6 Noroeste 16 Oeste 0 1015.9 -0.5 47
2019-03-25 01:00:00 12.8 9 Oeste 20 Oeste 0 1016.1 -0.4 44
2019-03-25 00:00:00 13.7 12 Noroeste 23 Oeste 0 1016.1 -0.4 41